createdAt,value
2023-01-26T00:01:50.392Z,29.73
2023-01-26T00:04:16.989Z,32.75
2023-01-26T00:06:43.473Z,35.30
2023-01-26T00:09:12.975Z,37.67
2023-01-26T00:11:39.555Z,32.38
2023-01-26T00:14:06.042Z,35.83
2023-01-26T00:16:32.661Z,31.23
2023-01-26T00:18:59.178Z,27.02
2023-01-26T00:21:25.667Z,30.50
2023-01-26T00:23:52.481Z,30.88
2023-01-26T00:26:20.592Z,33.40
2023-01-26T00:28:47.176Z,29.38
2023-01-26T00:31:21.291Z,27.80
2023-01-26T00:33:47.796Z,29.30
2023-01-26T00:36:14.339Z,23.92
2023-01-26T00:38:41.052Z,23.58
2023-01-26T00:41:07.632Z,28.83
2023-01-26T00:43:34.182Z,24.17
2023-01-26T00:46:00.797Z,19.85
2023-01-26T00:48:27.275Z,29.23
2023-01-26T00:50:53.756Z,23.95
2023-01-26T00:53:20.306Z,26.67
2023-01-26T00:55:46.774Z,22.83
2023-01-26T00:58:13.247Z,27.85
2023-01-26T01:00:40.006Z,24.42
2023-01-26T01:03:06.982Z,26.95
2023-01-26T01:05:33.555Z,23.35
2023-01-26T01:08:00.173Z,21.00
2023-01-26T01:10:29.619Z,24.27
2023-01-26T01:12:56.613Z,22.85
2023-01-26T01:15:23.492Z,26.58
2023-01-26T01:17:50.260Z,26.52
2023-01-26T01:20:16.918Z,24.83
2023-01-26T01:22:43.515Z,23.75
2023-01-26T01:25:10.007Z,29.83
2023-01-26T01:27:36.539Z,30.33
2023-01-26T01:30:07.618Z,26.73
2023-01-26T01:32:35.936Z,32.63
2023-01-26T01:35:02.405Z,32.03
2023-01-26T01:37:29.522Z,31.30
2023-01-26T01:39:55.988Z,33.30
2023-01-26T01:42:22.575Z,29.55
2023-01-26T01:45:26.935Z,26.52
2023-01-26T01:47:54.636Z,31.15
2023-01-26T01:50:21.197Z,25.70
2023-01-26T01:52:48.024Z,25.38
2023-01-26T01:55:14.736Z,20.80
2023-01-26T01:57:46.470Z,21.88
2023-01-26T02:00:15.272Z,20.23
2023-01-26T02:02:42.917Z,23.23
2023-01-26T02:05:28.321Z,23.85
2023-01-26T02:07:54.749Z,18.70
2023-01-26T02:10:21.255Z,30.27
2023-01-26T02:12:47.940Z,30.27
2023-01-26T02:15:14.348Z,28.88
2023-01-26T02:17:40.870Z,37.67
2023-01-26T02:20:13.781Z,29.58
2023-01-26T02:22:46.171Z,24.15
2023-01-26T02:25:38.076Z,30.20
2023-01-26T02:28:04.563Z,25.42
2023-01-26T02:30:31.026Z,24.92
2023-01-26T02:32:57.503Z,29.60
2023-01-26T02:35:23.995Z,32.17
2023-01-26T02:37:50.532Z,33.30
2023-01-26T02:40:36.146Z,36.78
2023-01-26T02:43:02.611Z,33.38
2023-01-26T02:45:29.716Z,23.63
2023-01-26T02:47:57.871Z,25.95
2023-01-26T02:50:24.368Z,26.17
2023-01-26T02:52:50.861Z,31.30
2023-01-26T02:55:25.033Z,31.25
2023-01-26T02:57:59.015Z,25.98
2023-01-26T03:00:27.578Z,30.27
2023-01-26T03:02:55.635Z,26.48
2023-01-26T03:05:22.206Z,25.05
2023-01-26T03:07:48.754Z,29.30
2023-01-26T03:10:16.605Z,23.75
2023-01-26T03:12:43.103Z,27.15
2023-01-26T03:15:28.811Z,22.63
2023-01-26T03:18:29.051Z,26.40
2023-01-26T03:21:14.215Z,26.63
2023-01-26T03:23:59.200Z,24.90
2023-01-26T03:26:44.355Z,26.77
2023-01-26T03:29:10.817Z,24.85
2023-01-26T03:31:37.356Z,25.20
2023-01-26T03:34:03.909Z,23.92
2023-01-26T03:36:30.654Z,26.80
2023-01-26T03:38:57.157Z,24.08
2023-01-26T03:41:42.370Z,28.80
2023-01-26T03:44:27.396Z,27.73
2023-01-26T03:47:12.565Z,26.52
2023-01-26T03:49:57.612Z,22.85
2023-01-26T03:52:42.892Z,20.33
2023-01-26T03:55:28.078Z,22.17
2023-01-26T03:57:54.652Z,20.33
2023-01-26T04:00:21.602Z,23.15
2023-01-26T04:03:06.768Z,23.50
2023-01-26T04:05:51.889Z,24.05
2023-01-26T04:08:24.156Z,26.65
2023-01-26T04:10:51.737Z,27.00
2023-01-26T04:13:37.890Z,24.58
2023-01-26T04:16:23.817Z,25.08
2023-01-26T04:19:09.239Z,24.83
2023-01-26T04:21:36.381Z,20.17
2023-01-26T04:24:09.584Z,29.05
2023-01-26T04:26:36.708Z,26.90
2023-01-26T04:29:07.896Z,24.13
2023-01-26T04:31:34.624Z,27.95
2023-01-26T04:34:01.807Z,22.83
2023-01-26T04:36:28.363Z,24.15
2023-01-26T04:38:55.057Z,24.70
2023-01-26T04:41:21.678Z,22.38
2023-01-26T04:43:48.186Z,23.55
2023-01-26T04:46:14.871Z,23.02
2023-01-26T04:48:41.457Z,23.55
2023-01-26T04:51:11.718Z,29.20
2023-01-26T04:53:38.329Z,26.25
2023-01-26T04:56:05.169Z,29.48
2023-01-26T04:58:33.026Z,24.42
2023-01-26T05:00:59.554Z,23.75
2023-01-26T05:03:26.395Z,25.33
2023-01-26T05:05:53.935Z,27.08
2023-01-26T05:08:20.962Z,27.90
2023-01-26T05:10:47.639Z,26.52
2023-01-26T05:13:14.347Z,23.75
2023-01-26T05:15:40.935Z,23.65
2023-01-26T05:18:07.394Z,23.48
2023-01-26T05:20:33.916Z,22.85
2023-01-26T05:23:00.476Z,22.02
2023-01-26T05:25:26.972Z,21.95
2023-01-26T05:27:53.766Z,21.92
2023-01-26T05:30:20.385Z,17.42
2023-01-26T05:32:46.879Z,24.30
2023-01-26T05:35:13.368Z,21.10
2023-01-26T05:37:42.089Z,27.67
2023-01-26T05:40:10.945Z,29.65
2023-01-26T05:42:37.755Z,25.27
2023-01-26T05:45:05.184Z,21.63
2023-01-26T05:47:31.752Z,21.60
2023-01-26T05:49:58.219Z,22.90
2023-01-26T05:52:24.999Z,21.50
2023-01-26T05:54:51.528Z,19.50
2023-01-26T05:57:18.111Z,21.27
2023-01-26T05:59:44.795Z,22.00
2023-01-26T06:02:14.568Z,23.13
2023-01-26T06:04:41.062Z,21.90
2023-01-26T06:07:07.631Z,20.63
2023-01-26T06:09:37.053Z,20.08
2023-01-26T06:12:03.762Z,27.45
2023-01-26T06:14:30.261Z,25.77
2023-01-26T06:16:56.925Z,22.73
2023-01-26T06:19:23.482Z,22.25
2023-01-26T06:21:50.062Z,24.67
2023-01-26T06:24:16.685Z,23.55
2023-01-26T06:26:43.201Z,22.70
2023-01-26T06:29:09.727Z,23.27
2023-01-26T06:31:37.164Z,21.70
2023-01-26T06:34:05.648Z,31.95
2023-01-26T06:36:32.173Z,25.70
2023-01-26T06:39:00.806Z,30.55
2023-01-26T06:41:27.498Z,27.77
2023-01-26T06:43:54.387Z,19.77
2023-01-26T06:46:20.961Z,22.38
2023-01-26T06:48:47.450Z,22.77
2023-01-26T06:51:16.721Z,24.88
2023-01-26T06:53:55.957Z,22.63
2023-01-26T06:56:23.007Z,22.73
2023-01-26T06:58:49.565Z,20.30
2023-01-26T07:01:23.649Z,24.63
2023-01-26T07:03:53.552Z,24.52
2023-01-26T07:06:20.074Z,20.48
2023-01-26T07:08:46.931Z,23.73
2023-01-26T07:11:13.628Z,20.00
2023-01-26T07:13:40.394Z,16.95
2023-01-26T07:16:08.889Z,18.02
2023-01-26T07:18:35.410Z,19.17
2023-01-26T07:21:02.620Z,21.05
2023-01-26T07:23:29.196Z,19.63
2023-01-26T07:25:55.689Z,20.45
2023-01-26T07:28:22.218Z,19.73
2023-01-26T07:30:49.179Z,18.80
2023-01-26T07:33:15.759Z,16.10
2023-01-26T07:35:42.450Z,20.67
2023-01-26T07:38:08.967Z,16.88
2023-01-26T07:40:35.460Z,15.10
2023-01-26T07:43:01.969Z,20.38
2023-01-26T07:45:28.563Z,13.85
2023-01-26T07:47:55.420Z,18.98
2023-01-26T07:50:21.952Z,19.73
2023-01-26T07:52:48.939Z,17.38
2023-01-26T07:55:16.249Z,16.65
2023-01-26T07:57:42.718Z,20.15
2023-01-26T08:00:12.417Z,14.88
2023-01-26T08:02:39.121Z,15.70
2023-01-26T08:05:06.494Z,15.70
2023-01-26T08:07:33.026Z,15.77
2023-01-26T08:09:59.515Z,14.23
2023-01-26T08:12:26.102Z,15.43
2023-01-26T08:14:52.666Z,17.58
2023-01-26T08:17:19.215Z,19.27
2023-01-26T08:19:46.177Z,18.55
2023-01-26T08:22:12.737Z,19.48
2023-01-26T08:24:39.220Z,20.05
2023-01-26T08:27:05.709Z,19.50
2023-01-26T08:29:32.244Z,16.77
2023-01-26T08:31:58.792Z,15.30
2023-01-26T08:34:26.568Z,15.57
2023-01-26T08:36:53.146Z,14.15
2023-01-26T08:39:19.853Z,9.50
2023-01-26T08:41:47.021Z,13.15
2023-01-26T08:44:13.612Z,13.70
2023-01-26T08:46:40.106Z,13.27
2023-01-26T08:49:06.577Z,15.43
2023-01-26T08:51:33.150Z,14.38
2023-01-26T08:53:59.671Z,15.95
2023-01-26T08:56:26.138Z,13.10
2023-01-26T08:58:52.632Z,15.95
2023-01-26T09:01:19.265Z,11.93
2023-01-26T09:03:45.898Z,11.63
2023-01-26T09:06:14.041Z,12.32
2023-01-26T09:08:40.524Z,14.27
2023-01-26T09:11:07.447Z,15.65
2023-01-26T09:13:34.123Z,12.05
2023-01-26T09:16:03.956Z,14.57
2023-01-26T09:18:30.438Z,10.77
2023-01-26T09:21:02.899Z,17.02
2023-01-26T09:23:29.383Z,12.70
2023-01-26T09:25:55.837Z,16.73
2023-01-26T09:28:22.407Z,13.60
2023-01-26T09:30:48.976Z,13.85
2023-01-26T09:33:15.605Z,12.35
2023-01-26T09:35:42.122Z,12.00
2023-01-26T09:38:08.618Z,13.57
2023-01-26T09:40:52.809Z,13.60
2023-01-26T09:43:41.654Z,10.80
2023-01-26T09:46:33.083Z,9.13
2023-01-26T09:49:11.583Z,11.00
2023-01-26T09:51:42.655Z,9.20
2023-01-26T09:54:19.400Z,9.98
2023-01-26T09:56:45.902Z,12.50
2023-01-26T09:59:54.909Z,14.30
2023-01-26T10:02:55.329Z,12.43
2023-01-26T10:05:33.644Z,11.90
2023-01-26T10:08:00.400Z,11.77
2023-01-26T10:10:29.657Z,11.30
2023-01-26T10:12:56.125Z,13.20
2023-01-26T10:15:30.812Z,12.65
2023-01-26T10:17:59.977Z,10.23
2023-01-26T10:20:40.291Z,10.65
2023-01-26T10:23:07.758Z,9.77
2023-01-26T10:25:41.372Z,11.55
2023-01-26T10:28:19.041Z,10.70
2023-01-26T10:30:46.556Z,8.57
2023-01-26T10:33:20.224Z,13.32
2023-01-26T10:35:47.698Z,10.65
2023-01-26T10:38:47.046Z,10.45
2023-01-26T10:41:19.255Z,8.43
2023-01-26T10:43:54.658Z,8.65
2023-01-26T10:46:31.249Z,8.55
2023-01-26T10:49:17.076Z,8.48
2023-01-26T10:51:45.371Z,8.05
2023-01-26T10:54:21.242Z,8.50
2023-01-26T10:56:50.672Z,9.07
2023-01-26T10:59:43.451Z,10.43
2023-01-26T11:02:15.973Z,10.55
2023-01-26T11:05:01.842Z,14.05
2023-01-26T11:07:32.077Z,8.88
2023-01-26T11:09:58.573Z,10.32
2023-01-26T11:12:25.431Z,11.90
2023-01-26T11:15:04.244Z,9.18
2023-01-26T11:17:38.782Z,8.80
2023-01-26T11:20:33.008Z,9.27
2023-01-26T11:23:13.978Z,9.63
2023-01-26T11:26:01.866Z,10.27
2023-01-26T11:28:59.854Z,10.75
2023-01-26T11:31:46.381Z,10.15
2023-01-26T11:34:20.784Z,12.20
2023-01-26T11:36:56.407Z,10.75
2023-01-26T11:39:31.137Z,21.17
2023-01-26T11:42:30.171Z,10.20
2023-01-26T11:45:35.950Z,13.20
2023-01-26T11:48:11.433Z,12.05
2023-01-26T11:50:51.859Z,12.25
2023-01-26T11:53:40.961Z,9.65
2023-01-26T11:56:19.767Z,14.15
2023-01-26T11:59:10.232Z,11.98
2023-01-26T12:01:53.367Z,11.07
2023-01-26T12:04:21.147Z,12.70
2023-01-26T12:06:53.585Z,10.35
2023-01-26T12:09:34.791Z,12.20
2023-01-26T12:12:12.068Z,13.65
2023-01-26T12:14:50.189Z,14.00
2023-01-26T12:17:50.331Z,16.02
2023-01-26T12:20:42.780Z,12.55
2023-01-26T12:23:09.163Z,12.40
2023-01-26T12:25:45.189Z,10.30
2023-01-26T12:28:13.259Z,11.80
2023-01-26T12:30:59.689Z,11.38
2023-01-26T12:33:26.329Z,8.95
2023-01-26T12:36:16.822Z,10.18
2023-01-26T12:38:55.746Z,9.13
2023-01-26T12:41:35.410Z,8.35
2023-01-26T12:44:11.006Z,8.32
2023-01-26T12:46:39.392Z,7.00
2023-01-26T12:49:12.635Z,6.63
2023-01-26T12:51:42.352Z,9.10
2023-01-26T12:54:23.496Z,8.63
2023-01-26T12:56:52.045Z,12.32
2023-01-26T12:59:47.590Z,11.32
2023-01-26T13:02:15.173Z,8.05
2023-01-26T13:04:43.212Z,11.02
2023-01-26T13:07:38.395Z,10.02
2023-01-26T13:10:24.893Z,8.82
2023-01-26T13:13:01.824Z,16.05
2023-01-26T13:15:29.753Z,10.60
2023-01-26T13:18:05.571Z,8.80
2023-01-26T13:20:47.821Z,9.40
2023-01-26T13:23:45.893Z,7.90
2023-01-26T13:26:34.165Z,8.35
2023-01-26T13:29:33.152Z,8.65
2023-01-26T13:32:10.032Z,8.40
2023-01-26T13:34:38.787Z,19.15
2023-01-26T13:37:12.039Z,6.80
2023-01-26T13:39:39.513Z,7.05
2023-01-26T13:42:36.405Z,6.72
2023-01-26T13:45:17.090Z,6.43
2023-01-26T13:47:45.355Z,7.90
2023-01-26T13:50:31.353Z,6.72
2023-01-26T13:52:58.106Z,8.35
2023-01-26T13:55:29.853Z,6.60
2023-01-26T13:58:22.093Z,8.40
2023-01-26T14:01:07.686Z,7.20
2023-01-26T14:03:34.288Z,7.05
2023-01-26T14:06:04.480Z,6.20
2023-01-26T14:08:31.242Z,4.28
2023-01-26T14:10:57.758Z,7.10
2023-01-26T14:13:42.443Z,7.10
2023-01-26T14:16:36.635Z,5.95
2023-01-26T14:19:08.837Z,5.60
2023-01-26T14:21:55.416Z,7.70
2023-01-26T14:24:41.245Z,6.18
2023-01-26T14:27:39.613Z,6.55
2023-01-26T14:30:23.014Z,7.18
2023-01-26T14:32:49.624Z,15.23
2023-01-26T14:35:22.629Z,8.90
2023-01-26T14:37:50.482Z,9.98
2023-01-26T14:40:22.572Z,6.13
2023-01-26T14:42:50.110Z,7.30
2023-01-26T14:45:16.761Z,13.95
2023-01-26T14:47:45.209Z,5.68
2023-01-26T14:50:18.544Z,7.53
2023-01-26T14:52:45.142Z,8.70
2023-01-26T14:55:20.562Z,7.00
2023-01-26T14:57:47.057Z,7.10
2023-01-26T15:00:22.986Z,8.90
2023-01-26T15:02:49.489Z,9.18
2023-01-26T15:05:17.719Z,10.40
2023-01-26T15:08:05.166Z,14.85
2023-01-26T15:10:38.171Z,10.10
2023-01-26T15:13:10.444Z,10.98
2023-01-26T15:16:04.374Z,8.23
2023-01-26T15:18:32.439Z,7.57
2023-01-26T15:21:11.296Z,10.75
2023-01-26T15:23:41.206Z,8.77
2023-01-26T15:26:09.925Z,11.23
2023-01-26T15:28:36.584Z,10.23
2023-01-26T15:31:03.159Z,9.02
2023-01-26T15:33:49.653Z,11.80
2023-01-26T15:36:46.416Z,9.98
2023-01-26T15:39:19.837Z,8.23
2023-01-26T15:41:59.428Z,10.68
2023-01-26T15:44:25.995Z,12.68
2023-01-26T15:46:52.545Z,15.43
2023-01-26T15:49:20.090Z,13.35
2023-01-26T15:51:46.588Z,13.75
2023-01-26T15:54:14.390Z,11.65
2023-01-26T15:56:40.909Z,12.18
2023-01-26T15:59:07.406Z,14.40
2023-01-26T16:01:33.875Z,13.05
2023-01-26T16:04:00.427Z,14.05
2023-01-26T16:06:30.728Z,16.65
2023-01-26T16:08:57.308Z,15.48
2023-01-26T16:11:29.085Z,24.20
2023-01-26T16:14:03.272Z,20.73
2023-01-26T16:16:30.641Z,17.05
2023-01-26T16:18:57.111Z,16.02
2023-01-26T16:21:25.235Z,14.95
2023-01-26T16:23:51.908Z,26.98
2023-01-26T16:26:18.914Z,12.40
2023-01-26T16:28:45.596Z,15.93
2023-01-26T16:31:32.125Z,13.35
2023-01-26T16:33:59.041Z,12.30
2023-01-26T16:36:25.484Z,13.13
2023-01-26T16:38:51.975Z,12.25
2023-01-26T16:41:29.095Z,15.55
2023-01-26T16:43:59.223Z,11.85
2023-01-26T16:46:26.198Z,10.43
2023-01-26T16:48:52.648Z,15.38
2023-01-26T16:51:22.988Z,10.88
2023-01-26T16:53:49.532Z,14.25
2023-01-26T16:56:16.930Z,11.43
2023-01-26T16:58:43.581Z,32.58
2023-01-26T17:01:20.363Z,10.35
2023-01-26T17:03:47.956Z,14.85
2023-01-26T17:06:14.873Z,15.98
2023-01-26T17:08:41.413Z,13.80
2023-01-26T17:11:19.688Z,14.90
2023-01-26T17:13:46.732Z,12.60
2023-01-26T17:16:25.393Z,13.02
2023-01-26T17:18:52.121Z,15.50
2023-01-26T17:21:19.158Z,13.20
2023-01-26T17:23:51.987Z,22.52
2023-01-26T17:28:46.036Z,13.70
2023-01-26T17:31:17.332Z,11.88
2023-01-26T17:33:44.789Z,16.55
2023-01-26T17:36:11.276Z,10.25
2023-01-26T17:38:38.178Z,10.02
2023-01-26T17:41:05.076Z,9.77
2023-01-26T17:43:31.528Z,9.73
2023-01-26T17:46:05.252Z,11.15
2023-01-26T17:48:31.784Z,9.30
2023-01-26T17:50:58.266Z,11.32
2023-01-26T17:53:24.807Z,19.40
2023-01-26T17:55:54.449Z,11.15
2023-01-26T17:58:20.853Z,12.77
2023-01-26T18:00:47.362Z,13.38
2023-01-26T18:03:13.836Z,15.05
2023-01-26T18:05:40.312Z,10.02
2023-01-26T18:08:06.764Z,18.08
2023-01-26T18:10:33.283Z,12.13
2023-01-26T18:12:59.719Z,14.85
2023-01-26T18:15:26.215Z,14.45
2023-01-26T18:17:52.701Z,13.93
2023-01-26T18:20:19.164Z,13.90
2023-01-26T18:22:46.075Z,21.35
2023-01-26T18:25:12.730Z,15.73
2023-01-26T18:27:39.403Z,17.23
2023-01-26T18:30:06.479Z,14.38
2023-01-26T18:32:33.015Z,14.95
2023-01-26T18:34:59.464Z,11.07
2023-01-26T18:37:26.075Z,13.05
2023-01-26T18:39:52.528Z,15.75
2023-01-26T18:42:19.039Z,14.88
2023-01-26T18:44:46.062Z,14.15
2023-01-26T18:47:12.874Z,11.65
2023-01-26T18:49:39.365Z,14.93
2023-01-26T18:52:05.855Z,12.23
2023-01-26T18:54:32.267Z,11.18
2023-01-26T18:56:58.779Z,9.32
2023-01-26T18:59:25.323Z,9.90
2023-01-26T19:01:51.794Z,12.48
2023-01-26T19:04:18.579Z,11.55
2023-01-26T19:06:45.303Z,11.88
2023-01-26T19:09:11.754Z,12.15
2023-01-26T19:11:38.487Z,20.17
2023-01-26T19:14:05.824Z,12.05
2023-01-26T19:16:32.563Z,15.77
2023-01-26T19:18:59.223Z,17.52
2023-01-26T19:21:27.506Z,18.02
2023-01-26T19:23:55.138Z,16.65
2023-01-26T19:26:23.153Z,17.40
2023-01-26T19:28:51.050Z,15.98
2023-01-26T19:31:19.307Z,15.00
2023-01-26T19:33:57.305Z,16.15
2023-01-26T19:36:24.355Z,17.95
2023-01-26T19:38:50.976Z,13.43
2023-01-26T19:41:18.100Z,17.65
2023-01-26T19:43:44.705Z,19.33
2023-01-26T19:46:12.050Z,25.38
2023-01-26T19:48:38.682Z,28.13
2023-01-26T19:51:08.171Z,17.42
2023-01-26T19:53:36.228Z,17.17
2023-01-26T19:56:13.374Z,21.55
2023-01-26T19:58:39.865Z,19.67
2023-01-26T20:01:08.393Z,22.38
2023-01-26T20:03:35.387Z,19.98
2023-01-26T20:06:02.134Z,22.83
2023-01-26T20:08:29.045Z,25.58
2023-01-26T20:11:02.423Z,29.48
2023-01-26T20:13:28.885Z,23.83
2023-01-26T20:15:55.593Z,24.25
2023-01-26T20:18:22.127Z,19.92
2023-01-26T20:20:50.265Z,29.08
2023-01-26T20:23:16.807Z,28.70
2023-01-26T20:25:43.563Z,30.35
2023-01-26T20:28:10.136Z,26.90
2023-01-26T20:30:36.879Z,39.65
2023-01-26T20:33:03.446Z,26.13
2023-01-26T20:35:29.942Z,29.38
2023-01-26T20:37:56.728Z,24.38
2023-01-26T20:40:23.259Z,26.42
2023-01-26T20:42:49.984Z,26.92
2023-01-26T20:45:16.576Z,25.20
2023-01-26T20:47:43.751Z,30.92
2023-01-26T20:50:13.554Z,26.55
2023-01-26T20:52:42.159Z,22.13
2023-01-26T20:55:12.072Z,28.92
2023-01-26T20:57:38.631Z,27.48
2023-01-26T21:00:07.210Z,32.30
2023-01-26T21:02:33.772Z,24.05
2023-01-26T21:05:00.790Z,25.80
2023-01-26T21:07:28.561Z,22.50
2023-01-26T21:09:55.123Z,27.52
2023-01-26T21:12:21.619Z,25.02
2023-01-26T21:14:48.413Z,23.33
2023-01-26T21:17:16.414Z,24.23
2023-01-26T21:19:42.919Z,24.63
2023-01-26T21:22:09.419Z,26.23
2023-01-26T21:24:35.917Z,30.95
2023-01-26T21:27:02.743Z,26.33
2023-01-26T21:29:29.259Z,29.70
2023-01-26T21:31:55.880Z,40.15
2023-01-26T21:34:22.413Z,26.17
2023-01-26T21:36:48.966Z,27.20
2023-01-26T21:39:15.511Z,31.50
2023-01-26T21:41:57.274Z,28.08
2023-01-26T21:44:53.620Z,24.65
2023-01-26T21:47:20.109Z,29.20
2023-01-26T21:49:47.679Z,23.35
2023-01-26T21:52:32.644Z,24.65
2023-01-26T21:54:59.126Z,25.70
2023-01-26T21:57:44.421Z,29.77
2023-01-26T22:00:11.650Z,23.17
2023-01-26T22:02:38.412Z,24.48
2023-01-26T22:05:05.265Z,23.42
2023-01-26T22:07:32.141Z,22.58
2023-01-26T22:09:58.704Z,26.08
2023-01-26T22:12:25.213Z,27.10
2023-01-26T22:14:52.237Z,17.70
2023-01-26T22:17:18.745Z,30.23
2023-01-26T22:19:45.439Z,21.65
2023-01-26T22:22:12.571Z,20.13
2023-01-26T22:24:39.094Z,20.38
2023-01-26T22:27:08.285Z,20.50
2023-01-26T22:29:34.882Z,19.95
2023-01-26T22:32:02.589Z,20.45
2023-01-26T22:34:29.207Z,26.48
2023-01-26T22:36:55.692Z,23.52
2023-01-26T22:39:22.190Z,23.27
2023-01-26T22:41:48.732Z,25.17
2023-01-26T22:44:15.239Z,22.25
2023-01-26T22:46:41.715Z,20.00
2023-01-26T22:49:09.494Z,24.15
2023-01-26T22:51:37.335Z,21.25
2023-01-26T22:54:04.390Z,24.75
2023-01-26T22:56:30.995Z,23.55
2023-01-26T22:59:00.060Z,26.60
2023-01-26T23:01:31.630Z,31.70
2023-01-26T23:03:58.209Z,20.25
2023-01-26T23:06:25.005Z,25.30
2023-01-26T23:08:52.053Z,22.08
2023-01-26T23:11:20.839Z,20.80
2023-01-26T23:13:47.954Z,28.20
2023-01-26T23:16:14.640Z,26.60
2023-01-26T23:18:41.220Z,27.00
2023-01-26T23:21:07.911Z,27.38
2023-01-26T23:23:34.544Z,24.67
2023-01-26T23:26:01.109Z,24.33
2023-01-26T23:28:32.917Z,27.85
2023-01-26T23:30:59.812Z,36.47
2023-01-26T23:33:27.139Z,31.48
2023-01-26T23:35:53.679Z,28.08
2023-01-26T23:38:20.834Z,31.67
2023-01-26T23:40:48.247Z,30.67
2023-01-26T23:43:17.244Z,28.48
2023-01-26T23:45:45.019Z,31.65
2023-01-26T23:48:11.660Z,30.20
2023-01-26T23:50:38.270Z,32.35
2023-01-26T23:53:05.297Z,28.67
2023-01-26T23:55:31.832Z,25.17
2023-01-26T23:57:58.313Z,25.25
